createdAt,value
2022-08-26T00:01:56.733Z,77.14
2022-08-26T00:04:26.085Z,77.97
2022-08-26T00:06:55.672Z,78.53
2022-08-26T00:09:24.871Z,78.45
2022-08-26T00:11:54.307Z,79.97
2022-08-26T00:14:28.268Z,80.05
2022-08-26T00:16:58.035Z,80.43
2022-08-26T00:19:25.486Z,80.82
2022-08-26T00:21:52.942Z,81.16
2022-08-26T00:24:21.761Z,81.51
2022-08-26T00:26:50.082Z,81.84
2022-08-26T00:29:19.848Z,81.71
2022-08-26T00:31:49.772Z,82.07
2022-08-26T00:34:19.264Z,81.37
2022-08-26T00:36:51.836Z,81.92
2022-08-26T00:39:20.816Z,82.22
2022-08-26T00:41:48.661Z,82.91
2022-08-26T00:44:17.080Z,83.06
2022-08-26T00:46:48.569Z,82.21
2022-08-26T00:49:37.975Z,81.87
2022-08-26T00:52:11.866Z,80.76
2022-08-26T00:54:46.828Z,81.96
2022-08-26T00:57:18.428Z,82.04
2022-08-26T00:59:54.751Z,81.58
2022-08-26T01:02:24.198Z,82.01
2022-08-26T01:04:59.019Z,81.97
2022-08-26T01:07:30.001Z,81.59
2022-08-26T01:09:59.668Z,80.82
2022-08-26T01:12:32.021Z,81.37
2022-08-26T01:15:00.029Z,80.72
2022-08-26T01:17:27.841Z,81.83
2022-08-26T01:20:10.119Z,82.25
2022-08-26T01:22:56.644Z,84.17
2022-08-26T01:25:27.911Z,84.61
2022-08-26T01:28:00.311Z,83.33
2022-08-26T01:30:31.203Z,84.14
2022-08-26T01:33:03.151Z,81.02
2022-08-26T01:35:30.884Z,81.45
2022-08-26T01:38:00.219Z,78.89
2022-08-26T01:40:34.093Z,79.72
2022-08-26T01:43:03.468Z,79.22
2022-08-26T01:45:34.447Z,81.95
2022-08-26T01:48:07.849Z,83.34
2022-08-26T01:50:37.445Z,84.31
2022-08-26T01:53:09.452Z,82.92
2022-08-26T01:55:43.591Z,82.96
2022-08-26T01:58:18.479Z,81.59
2022-08-26T02:00:47.512Z,82.19
2022-08-26T02:03:18.931Z,82.13
2022-08-26T02:05:59.941Z,82.72
2022-08-26T02:08:32.067Z,83.82
2022-08-26T02:11:00.567Z,83.29
2022-08-26T02:13:31.351Z,81.27
2022-08-26T02:16:01.100Z,79.97
2022-08-26T02:18:33.118Z,78.16
2022-08-26T02:21:00.735Z,77.86
2022-08-26T02:23:28.908Z,77.47
2022-08-26T02:26:03.859Z,77.26
2022-08-26T02:28:38.700Z,77.31
2022-08-26T02:31:06.358Z,77.58
2022-08-26T02:33:35.804Z,76.89
2022-08-26T02:36:04.272Z,76.83
2022-08-26T02:38:32.603Z,76.91
2022-08-26T02:41:01.760Z,77.22
2022-08-26T02:43:32.874Z,76.62
2022-08-26T02:46:02.325Z,77.49
2022-08-26T02:48:30.377Z,82.89
2022-08-26T02:51:01.820Z,79.39
2022-08-26T02:53:32.003Z,77.98
2022-08-26T02:56:04.567Z,77.09
2022-08-26T02:58:32.483Z,78.50
2022-08-26T03:01:00.185Z,80.04
2022-08-26T03:03:29.841Z,78.51
2022-08-26T03:05:58.273Z,76.48
2022-08-26T03:08:25.800Z,78.00
2022-08-26T03:10:53.239Z,77.35
2022-08-26T03:13:20.958Z,80.32
2022-08-26T03:15:49.151Z,76.31
2022-08-26T03:18:16.586Z,80.03
2022-08-26T03:20:44.770Z,76.86
2022-08-26T03:23:13.087Z,76.40
2022-08-26T03:25:40.598Z,80.15
2022-08-26T03:28:09.652Z,75.25
2022-08-26T03:30:45.348Z,75.42
2022-08-26T03:33:14.626Z,75.19
2022-08-26T03:35:44.421Z,78.26
2022-08-26T03:38:11.962Z,74.55
2022-08-26T03:40:40.471Z,73.86
2022-08-26T03:43:10.089Z,74.44
2022-08-26T03:45:38.573Z,73.96
2022-08-26T03:48:06.918Z,74.32
2022-08-26T03:50:35.750Z,73.34
2022-08-26T03:53:04.211Z,72.86
2022-08-26T03:55:35.175Z,73.36
2022-08-26T03:58:02.677Z,73.61
2022-08-26T04:00:30.578Z,73.44
2022-08-26T04:02:58.439Z,73.68
2022-08-26T04:05:26.028Z,73.75
2022-08-26T04:07:55.927Z,73.65
2022-08-26T04:10:29.080Z,72.58
2022-08-26T04:13:06.186Z,73.32
2022-08-26T04:15:34.424Z,73.81
2022-08-26T04:18:01.881Z,74.31
2022-08-26T04:20:29.296Z,73.58
2022-08-26T04:22:57.051Z,74.09
2022-08-26T04:25:24.562Z,74.08
2022-08-26T04:27:52.302Z,73.73
2022-08-26T04:30:20.373Z,74.17
2022-08-26T04:32:49.663Z,74.06
2022-08-26T04:35:17.259Z,74.30
2022-08-26T04:37:45.020Z,74.39
2022-08-26T04:40:12.596Z,74.25
2022-08-26T04:42:40.183Z,73.78
2022-08-26T04:45:10.021Z,73.55
2022-08-26T04:47:38.223Z,73.59
2022-08-26T04:50:07.516Z,73.35
2022-08-26T04:52:36.622Z,72.74
2022-08-26T04:55:05.959Z,72.26
2022-08-26T04:57:34.184Z,71.95
2022-08-26T05:00:06.955Z,72.33
2022-08-26T05:02:34.566Z,71.83
2022-08-26T05:05:04.361Z,71.71
2022-08-26T05:07:31.890Z,71.34
2022-08-26T05:09:59.333Z,71.22
2022-08-26T05:12:29.098Z,70.38
2022-08-26T05:15:02.712Z,70.14
2022-08-26T05:17:31.392Z,70.21
2022-08-26T05:19:58.824Z,69.99
2022-08-26T05:22:26.429Z,69.59
2022-08-26T05:24:54.164Z,70.06
2022-08-26T05:27:21.623Z,69.07
2022-08-26T05:29:54.638Z,69.13
2022-08-26T05:32:22.429Z,68.20
2022-08-26T05:34:54.086Z,68.43
2022-08-26T05:37:22.140Z,68.87
2022-08-26T05:39:51.143Z,68.16
2022-08-26T05:42:19.903Z,68.45
2022-08-26T05:44:54.021Z,68.87
2022-08-26T05:47:24.543Z,69.13
2022-08-26T05:49:52.644Z,68.32
2022-08-26T05:52:20.501Z,68.26
2022-08-26T05:54:47.928Z,68.14
2022-08-26T05:57:16.078Z,68.74
2022-08-26T05:59:46.007Z,68.07
2022-08-26T06:02:13.512Z,67.97
2022-08-26T06:04:41.411Z,67.43
2022-08-26T06:07:11.546Z,67.70
2022-08-26T06:09:40.185Z,67.60
2022-08-26T06:12:07.995Z,67.02
2022-08-26T06:14:36.056Z,66.73
2022-08-26T06:17:03.608Z,66.71
2022-08-26T06:19:33.083Z,66.54
2022-08-26T06:22:23.575Z,66.11
2022-08-26T06:25:10.356Z,66.11
2022-08-26T06:27:37.760Z,65.89
2022-08-26T06:30:06.045Z,65.85
2022-08-26T06:32:33.867Z,65.96
2022-08-26T06:35:01.563Z,65.43
2022-08-26T06:37:29.513Z,65.72
2022-08-26T06:39:57.101Z,65.54
2022-08-26T06:42:25.152Z,65.00
2022-08-26T06:44:53.064Z,64.58
2022-08-26T06:47:20.709Z,63.98
2022-08-26T06:49:48.544Z,63.63
2022-08-26T06:52:22.923Z,63.53
2022-08-26T06:54:51.958Z,63.33
2022-08-26T06:57:20.856Z,62.72
2022-08-26T06:59:48.837Z,62.56
2022-08-26T07:02:19.486Z,62.63
2022-08-26T07:07:18.528Z,61.75
2022-08-26T07:09:52.628Z,61.09
2022-08-26T07:12:20.620Z,61.54
2022-08-26T07:14:48.500Z,61.51
2022-08-26T07:17:16.647Z,62.16
2022-08-26T07:19:44.155Z,62.00
2022-08-26T07:22:12.317Z,61.02
2022-08-26T07:24:42.369Z,62.25
2022-08-26T07:27:13.504Z,61.66
2022-08-26T07:29:43.446Z,61.75
2022-08-26T07:32:14.043Z,61.58
2022-08-26T07:34:42.631Z,61.06
2022-08-26T07:37:10.615Z,60.52
2022-08-26T07:39:38.516Z,61.56
2022-08-26T07:42:10.648Z,60.35
2022-08-26T07:44:39.737Z,59.66
2022-08-26T07:47:10.553Z,58.80
2022-08-26T07:49:55.997Z,58.38
2022-08-26T07:52:27.089Z,57.45
2022-08-26T07:55:00.250Z,56.67
2022-08-26T07:57:28.465Z,53.05
2022-08-26T07:59:56.721Z,53.25
2022-08-26T08:02:26.350Z,53.69
2022-08-26T08:04:55.451Z,52.93
2022-08-26T08:07:38.640Z,52.33
2022-08-26T08:10:15.048Z,52.24
2022-08-26T08:12:43.837Z,52.28
2022-08-26T08:15:15.481Z,51.91
2022-08-26T08:17:43.755Z,47.33
2022-08-26T08:20:13.828Z,48.77
2022-08-26T08:22:43.055Z,45.47
2022-08-26T08:25:12.160Z,46.97
2022-08-26T08:27:42.407Z,46.94
2022-08-26T08:30:13.830Z,44.51
2022-08-26T08:32:43.670Z,42.07
2022-08-26T08:35:14.587Z,42.62
2022-08-26T08:37:44.819Z,43.11
2022-08-26T08:40:18.223Z,42.92
2022-08-26T08:43:04.025Z,43.10
2022-08-26T08:45:47.126Z,42.46
2022-08-26T08:48:20.010Z,41.50
2022-08-26T08:50:53.891Z,41.79
2022-08-26T08:53:31.637Z,41.83
2022-08-26T08:56:23.728Z,40.76
2022-08-26T08:58:52.015Z,42.98
2022-08-26T09:01:45.725Z,41.15
2022-08-26T09:04:47.900Z,40.90
2022-08-26T09:07:36.579Z,41.39
2022-08-26T09:10:22.072Z,39.58
2022-08-26T09:12:51.144Z,39.90
2022-08-26T09:15:36.335Z,40.21
2022-08-26T09:18:31.619Z,39.33
2022-08-26T09:21:03.816Z,38.43
2022-08-26T09:23:34.084Z,38.67
2022-08-26T09:26:28.711Z,36.81
2022-08-26T09:29:03.469Z,35.80
2022-08-26T09:31:35.956Z,36.72
2022-08-26T09:34:24.482Z,35.62
2022-08-26T09:36:57.461Z,37.42
2022-08-26T09:39:25.753Z,36.02
2022-08-26T09:42:25.562Z,35.42
2022-08-26T09:45:03.603Z,35.18
2022-08-26T09:47:39.572Z,34.60
2022-08-26T09:50:29.302Z,33.75
2022-08-26T09:53:09.624Z,35.93
2022-08-26T09:55:43.297Z,34.31
2022-08-26T09:58:16.860Z,34.90
2022-08-26T10:00:58.508Z,34.05
2022-08-26T10:03:39.177Z,33.61
2022-08-26T10:06:07.949Z,34.26
2022-08-26T10:08:42.519Z,34.67
2022-08-26T10:11:21.962Z,32.48
2022-08-26T10:14:00.792Z,32.01
2022-08-26T10:16:54.460Z,33.23
2022-08-26T10:19:56.013Z,33.11
2022-08-26T10:22:26.275Z,32.45
2022-08-26T10:25:00.316Z,33.62
2022-08-26T10:27:36.153Z,33.99
2022-08-26T10:30:14.767Z,32.82
2022-08-26T10:32:49.181Z,33.14
2022-08-26T10:35:19.291Z,31.62
2022-08-26T10:37:56.025Z,31.88
2022-08-26T10:40:44.781Z,30.66
2022-08-26T10:43:25.984Z,30.14
2022-08-26T10:46:12.137Z,30.92
2022-08-26T10:48:53.613Z,29.73
2022-08-26T10:51:35.614Z,31.44
2022-08-26T10:54:13.232Z,32.71
2022-08-26T10:56:49.617Z,32.69
2022-08-26T10:59:48.431Z,32.03
2022-08-26T11:02:31.467Z,32.61
2022-08-26T11:05:05.784Z,32.31
2022-08-26T11:07:39.116Z,30.74
2022-08-26T11:10:09.465Z,31.80
2022-08-26T11:12:37.512Z,31.41
2022-08-26T11:15:24.571Z,30.31
2022-08-26T11:18:08.941Z,33.00
2022-08-26T11:20:45.110Z,30.71
2022-08-26T11:23:13.733Z,30.23
2022-08-26T11:25:57.141Z,30.41
2022-08-26T11:28:35.593Z,30.27
2022-08-26T11:31:05.602Z,29.79
2022-08-26T11:33:57.297Z,30.36
2022-08-26T11:36:49.161Z,31.76
2022-08-26T11:39:30.517Z,29.84
2022-08-26T11:42:15.995Z,30.21
2022-08-26T11:44:49.106Z,29.85
2022-08-26T11:47:26.875Z,29.75
2022-08-26T11:50:13.085Z,29.46
2022-08-26T11:52:40.631Z,30.85
2022-08-26T11:55:12.085Z,31.11
2022-08-26T11:57:46.983Z,31.01
2022-08-26T12:00:22.206Z,30.63
2022-08-26T12:02:52.422Z,30.55
2022-08-26T12:05:31.198Z,31.68
2022-08-26T12:08:08.852Z,30.33
2022-08-26T12:10:37.735Z,29.17
2022-08-26T12:13:07.684Z,29.24
2022-08-26T12:15:35.856Z,29.26
2022-08-26T12:18:18.227Z,29.35
2022-08-26T12:20:58.736Z,28.92
2022-08-26T12:23:35.215Z,28.65
2022-08-26T12:26:27.500Z,29.40
2022-08-26T12:29:19.781Z,30.36
2022-08-26T12:31:48.796Z,28.32
2022-08-26T12:34:18.555Z,28.30
2022-08-26T12:36:53.686Z,29.32
2022-08-26T12:39:29.745Z,31.04
2022-08-26T12:42:02.193Z,29.98
2022-08-26T12:44:37.745Z,29.69
2022-08-26T12:47:08.231Z,29.29
2022-08-26T12:49:39.396Z,29.93
2022-08-26T12:52:29.772Z,29.80
2022-08-26T12:55:00.888Z,30.11
2022-08-26T12:57:32.692Z,30.44
2022-08-26T13:00:28.439Z,29.11
2022-08-26T13:02:56.805Z,30.62
2022-08-26T13:05:33.576Z,31.52
2022-08-26T13:08:27.825Z,31.57
2022-08-26T13:11:05.374Z,29.51
2022-08-26T13:13:32.820Z,29.15
2022-08-26T13:16:01.033Z,29.84
2022-08-26T13:18:29.625Z,29.40
2022-08-26T13:20:59.261Z,28.91
2022-08-26T13:23:27.781Z,29.14
2022-08-26T13:25:55.228Z,28.94
2022-08-26T13:28:22.677Z,28.99
2022-08-26T13:30:50.479Z,27.95
2022-08-26T13:33:18.564Z,28.69
2022-08-26T13:35:46.013Z,27.69
2022-08-26T13:38:18.574Z,28.88
2022-08-26T13:41:02.680Z,28.87
2022-08-26T13:43:31.549Z,29.86
2022-08-26T13:45:59.045Z,30.16
2022-08-26T13:48:26.581Z,30.37
2022-08-26T13:50:54.341Z,30.63
2022-08-26T13:53:21.975Z,31.55
2022-08-26T13:55:49.562Z,32.42
2022-08-26T13:58:17.404Z,31.02
2022-08-26T14:00:44.923Z,30.59
2022-08-26T14:03:13.622Z,30.01
2022-08-26T14:05:41.369Z,30.31
2022-08-26T14:08:08.980Z,29.63
2022-08-26T14:10:36.916Z,29.65
2022-08-26T14:13:04.612Z,29.29
2022-08-26T14:15:37.736Z,28.75
2022-08-26T14:18:08.793Z,28.88
2022-08-26T14:20:38.201Z,28.68
2022-08-26T14:23:20.811Z,28.00
2022-08-26T14:25:48.405Z,28.64
2022-08-26T14:28:16.237Z,28.27
2022-08-26T14:30:53.672Z,27.85
2022-08-26T14:33:25.928Z,28.18
2022-08-26T14:36:13.615Z,28.62
2022-08-26T14:38:41.930Z,29.05
2022-08-26T14:41:10.147Z,28.81
2022-08-26T14:43:42.385Z,29.06
2022-08-26T14:46:10.159Z,29.03
2022-08-26T14:48:37.720Z,29.77
2022-08-26T14:51:05.469Z,30.52
2022-08-26T14:53:51.656Z,30.78
2022-08-26T14:56:19.264Z,30.09
2022-08-26T14:58:47.591Z,30.20
2022-08-26T15:01:15.242Z,30.48
2022-08-26T15:03:42.765Z,30.39
2022-08-26T15:06:13.900Z,29.84
2022-08-26T15:08:41.343Z,30.18
2022-08-26T15:11:08.812Z,29.85
2022-08-26T15:13:36.656Z,29.61
2022-08-26T15:16:04.448Z,30.14
2022-08-26T15:18:32.111Z,29.59
2022-08-26T15:20:59.933Z,29.58
2022-08-26T15:23:27.446Z,31.10
2022-08-26T15:25:55.548Z,31.91
2022-08-26T15:28:23.332Z,29.95
2022-08-26T15:30:51.150Z,29.99
2022-08-26T15:33:18.719Z,30.62
2022-08-26T15:35:46.502Z,31.00
2022-08-26T15:38:14.129Z,30.32
2022-08-26T15:40:42.175Z,31.62
2022-08-26T15:43:27.922Z,32.84
2022-08-26T15:45:56.766Z,32.22
2022-08-26T15:48:25.084Z,32.99
2022-08-26T15:50:55.981Z,33.79
2022-08-26T15:53:24.223Z,32.52
2022-08-26T15:55:55.017Z,33.04
2022-08-26T15:58:26.943Z,33.73
2022-08-26T16:00:56.176Z,34.68
2022-08-26T16:03:24.344Z,34.31
2022-08-26T16:05:52.240Z,34.96
2022-08-26T16:08:20.633Z,35.71
2022-08-26T16:10:50.774Z,35.01
2022-08-26T16:13:20.174Z,34.96
2022-08-26T16:15:48.518Z,35.62
2022-08-26T16:18:16.680Z,35.70
2022-08-26T16:21:12.644Z,35.13
2022-08-26T16:23:38.953Z,37.02
2022-08-26T16:26:14.042Z,34.60
2022-08-26T16:28:42.232Z,36.15
2022-08-26T16:31:11.708Z,35.90
2022-08-26T16:33:39.948Z,36.60
2022-08-26T16:36:08.959Z,36.83
2022-08-26T16:38:37.623Z,37.51
2022-08-26T16:41:06.020Z,37.78
2022-08-26T16:43:34.373Z,38.26
2022-08-26T16:46:01.948Z,38.70
2022-08-26T16:48:29.381Z,39.19
2022-08-26T16:50:57.159Z,39.49
2022-08-26T16:53:24.612Z,39.79
2022-08-26T16:55:52.192Z,40.28
2022-08-26T16:58:22.074Z,40.61
2022-08-26T17:00:49.729Z,41.08
2022-08-26T17:03:17.445Z,41.49
2022-08-26T17:05:45.124Z,41.73
2022-08-26T17:08:15.396Z,41.93
2022-08-26T17:10:55.128Z,42.08
2022-08-26T17:13:35.439Z,42.18
2022-08-26T17:16:09.380Z,42.36
2022-08-26T17:18:37.309Z,42.56
2022-08-26T17:21:08.180Z,42.72
2022-08-26T17:23:37.178Z,43.16
2022-08-26T17:26:05.467Z,43.45
2022-08-26T17:28:33.652Z,43.53
2022-08-26T17:31:01.542Z,43.65
2022-08-26T17:33:29.840Z,43.88
2022-08-26T17:35:57.740Z,44.18
2022-08-26T17:38:25.783Z,44.56
2022-08-26T17:40:53.543Z,44.90
2022-08-26T17:43:21.074Z,45.20
2022-08-26T17:45:48.662Z,45.55
2022-08-26T17:48:17.217Z,46.01
2022-08-26T17:50:45.509Z,46.53
2022-08-26T17:53:19.159Z,47.34
2022-08-26T17:55:48.128Z,48.71
2022-08-26T17:58:17.207Z,51.56
2022-08-26T18:00:50.388Z,51.54
2022-08-26T18:03:19.090Z,51.82
2022-08-26T18:05:51.868Z,52.31
2022-08-26T18:08:20.199Z,54.13
2022-08-26T18:10:47.913Z,53.45
2022-08-26T18:13:15.804Z,53.78
2022-08-26T18:15:47.443Z,53.95
2022-08-26T18:18:15.249Z,54.50
2022-08-26T18:20:44.543Z,55.29
2022-08-26T18:23:12.997Z,55.86
2022-08-26T18:25:41.884Z,55.65
2022-08-26T18:28:10.373Z,55.85
2022-08-26T18:30:38.059Z,56.46
2022-08-26T18:33:05.739Z,55.84
2022-08-26T18:35:39.296Z,55.26
2022-08-26T18:38:11.430Z,55.65
2022-08-26T18:40:44.589Z,55.66
2022-08-26T18:43:12.133Z,55.79
2022-08-26T18:45:39.880Z,56.50
2022-08-26T18:48:07.395Z,56.08
2022-08-26T18:50:39.766Z,57.29
2022-08-26T18:53:08.069Z,57.65
2022-08-26T18:55:35.540Z,57.39
2022-08-26T18:58:03.128Z,57.40
2022-08-26T19:00:31.600Z,57.63
2022-08-26T19:02:59.155Z,58.05
2022-08-26T19:05:28.200Z,58.66
2022-08-26T19:07:56.579Z,58.93
2022-08-26T19:10:24.797Z,59.67
2022-08-26T19:12:53.720Z,59.55
2022-08-26T19:15:23.127Z,60.19
2022-08-26T19:17:50.653Z,60.49
2022-08-26T19:20:18.273Z,60.61
2022-08-26T19:22:46.057Z,61.02
2022-08-26T19:25:13.981Z,60.93
2022-08-26T19:27:41.523Z,60.82
2022-08-26T19:30:10.016Z,61.76
2022-08-26T19:32:37.468Z,61.63
2022-08-26T19:35:06.032Z,62.40
2022-08-26T19:37:34.257Z,63.18
2022-08-26T19:40:02.135Z,63.80
2022-08-26T19:42:29.868Z,63.62
2022-08-26T19:45:24.924Z,66.37
2022-08-26T19:47:53.876Z,65.79
2022-08-26T19:50:22.744Z,66.89
2022-08-26T19:52:50.267Z,67.69
2022-08-26T19:55:20.817Z,69.59
2022-08-26T19:57:50.215Z,69.07
2022-08-26T20:00:22.070Z,70.16
2022-08-26T20:02:50.306Z,70.31
2022-08-26T20:05:20.538Z,70.70
2022-08-26T20:07:48.948Z,70.49
2022-08-26T20:10:21.038Z,70.64
2022-08-26T20:12:50.561Z,69.80
2022-08-26T20:15:21.053Z,69.28
2022-08-26T20:17:49.376Z,69.04
2022-08-26T20:20:35.575Z,69.34
2022-08-26T20:23:04.410Z,69.88
2022-08-26T20:25:33.234Z,69.79
2022-08-26T20:28:01.433Z,69.60
2022-08-26T20:30:29.297Z,70.83
2022-08-26T20:32:57.372Z,69.91
2022-08-26T20:35:25.105Z,71.52
2022-08-26T20:37:52.872Z,65.56
2022-08-26T20:40:21.317Z,62.54
2022-08-26T20:42:48.851Z,61.57
2022-08-26T20:45:16.792Z,60.72
2022-08-26T20:47:44.279Z,58.75
2022-08-26T20:50:11.836Z,58.98
2022-08-26T20:52:39.531Z,58.77
2022-08-26T20:55:07.296Z,56.63
2022-08-26T20:57:34.814Z,55.47
2022-08-26T21:00:03.960Z,53.41
2022-08-26T21:02:31.375Z,52.67
2022-08-26T21:04:59.783Z,52.25
2022-08-26T21:07:27.603Z,51.74
2022-08-26T21:09:55.756Z,51.41
2022-08-26T21:12:23.140Z,50.75
2022-08-26T21:14:50.945Z,50.12
2022-08-26T21:17:21.530Z,49.72
2022-08-26T21:19:49.020Z,49.36
2022-08-26T21:22:16.821Z,49.07
2022-08-26T21:24:44.320Z,48.91
2022-08-26T21:27:12.048Z,48.20
2022-08-26T21:29:39.795Z,47.87
2022-08-26T21:32:07.362Z,47.61
2022-08-26T21:34:34.832Z,47.60
2022-08-26T21:37:02.680Z,47.56
2022-08-26T21:39:36.321Z,47.49
2022-08-26T21:42:07.680Z,47.76
2022-08-26T21:44:35.063Z,47.62
2022-08-26T21:47:04.800Z,48.16
2022-08-26T21:49:32.535Z,48.21
2022-08-26T21:52:01.611Z,47.99
2022-08-26T21:54:28.991Z,48.33
2022-08-26T21:56:57.504Z,48.40
2022-08-26T21:59:24.959Z,48.37
2022-08-26T22:01:52.429Z,48.55
2022-08-26T22:04:20.892Z,48.90
2022-08-26T22:06:50.864Z,49.42
2022-08-26T22:09:25.099Z,49.47
2022-08-26T22:11:53.825Z,49.65
2022-08-26T22:14:22.307Z,49.89
2022-08-26T22:16:50.189Z,50.19
2022-08-26T22:19:23.568Z,50.14
2022-08-26T22:21:53.372Z,50.16
2022-08-26T22:24:23.175Z,50.71
2022-08-26T22:26:51.771Z,50.74
2022-08-26T22:29:20.109Z,51.09
2022-08-26T22:31:47.993Z,51.41
2022-08-26T22:34:17.352Z,51.99
2022-08-26T22:36:47.561Z,52.48
2022-08-26T22:39:21.028Z,53.43
2022-08-26T22:41:48.741Z,55.23
2022-08-26T22:44:18.042Z,54.53
2022-08-26T22:46:46.608Z,54.91
2022-08-26T22:49:18.325Z,58.83
2022-08-26T22:51:46.546Z,57.15
2022-08-26T22:54:15.550Z,55.88
2022-08-26T22:56:44.849Z,55.49
2022-08-26T22:59:13.191Z,58.84
2022-08-26T23:01:42.904Z,58.00
2022-08-26T23:04:11.657Z,61.68
2022-08-26T23:06:41.800Z,62.57
2022-08-26T23:09:10.494Z,63.64
2022-08-26T23:11:42.184Z,64.43
2022-08-26T23:14:10.801Z,63.43
2022-08-26T23:16:43.734Z,59.48
2022-08-26T23:19:12.996Z,59.67
2022-08-26T23:21:40.935Z,64.29
2022-08-26T23:24:09.239Z,65.32
2022-08-26T23:26:38.556Z,65.85
2022-08-26T23:29:08.384Z,67.59
2022-08-26T23:31:37.751Z,66.94
2022-08-26T23:34:24.786Z,67.96
2022-08-26T23:36:53.181Z,68.28
2022-08-26T23:39:21.647Z,68.74
2022-08-26T23:41:49.152Z,67.50
2022-08-26T23:44:16.690Z,67.22
2022-08-26T23:46:44.527Z,67.26
2022-08-26T23:49:12.187Z,67.19
2022-08-26T23:51:57.937Z,68.62
2022-08-26T23:54:25.775Z,69.89
2022-08-26T23:56:53.329Z,70.15
2022-08-26T23:59:20.800Z,67.98
